createdAt,value
2023-05-15T00:01:08.062Z,9.88
2023-05-15T00:03:36.250Z,10.45
2023-05-15T00:06:04.130Z,10.70
2023-05-15T00:08:31.818Z,10.30
2023-05-15T00:11:02.187Z,10.75
2023-05-15T00:13:30.198Z,11.23
2023-05-15T00:15:58.176Z,10.88
2023-05-15T00:18:27.394Z,10.88
2023-05-15T00:20:55.210Z,11.60
2023-05-15T00:23:23.045Z,12.30
2023-05-15T00:25:51.399Z,10.43
2023-05-15T00:28:19.125Z,10.23
2023-05-15T00:30:46.785Z,11.52
2023-05-15T00:33:14.764Z,10.93
2023-05-15T00:35:46.484Z,10.90
2023-05-15T00:38:14.715Z,10.95
2023-05-15T00:40:42.706Z,11.75
2023-05-15T00:43:11.080Z,11.70
2023-05-15T00:45:40.525Z,11.20
2023-05-15T00:48:11.067Z,11.73
2023-05-15T00:50:41.292Z,13.05
2023-05-15T00:53:11.020Z,12.15
2023-05-15T00:55:39.427Z,13.82
2023-05-15T00:58:07.488Z,12.73
2023-05-15T01:00:36.060Z,11.85
2023-05-15T01:03:06.096Z,11.07
2023-05-15T01:05:34.756Z,12.60
2023-05-15T01:08:08.453Z,12.77
2023-05-15T01:10:38.786Z,11.27
2023-05-15T01:13:08.493Z,11.57
2023-05-15T01:15:36.699Z,11.70
2023-05-15T01:18:06.057Z,10.85
2023-05-15T01:20:38.622Z,10.60
2023-05-15T01:23:11.184Z,10.60
2023-05-15T01:25:57.543Z,11.25
2023-05-15T01:28:32.630Z,10.20
2023-05-15T01:31:06.826Z,11.50
2023-05-15T01:33:39.939Z,10.77
2023-05-15T01:36:12.219Z,11.55
2023-05-15T01:38:41.236Z,11.13
2023-05-15T01:41:11.937Z,11.60
2023-05-15T01:43:43.709Z,12.15
2023-05-15T01:46:14.242Z,11.60
2023-05-15T01:48:42.894Z,11.73
2023-05-15T01:51:11.933Z,12.25
2023-05-15T01:53:40.730Z,12.45
2023-05-15T01:56:10.139Z,12.75
2023-05-15T01:58:39.238Z,13.48
2023-05-15T02:01:10.785Z,13.90
2023-05-15T02:03:38.896Z,14.25
2023-05-15T02:06:07.742Z,15.27
2023-05-15T02:08:35.906Z,13.95
2023-05-15T02:11:04.874Z,15.05
2023-05-15T02:13:35.052Z,14.45
2023-05-15T02:16:03.027Z,14.50
2023-05-15T02:18:32.730Z,14.30
2023-05-15T02:21:03.177Z,14.43
2023-05-15T02:23:31.180Z,14.18
2023-05-15T02:26:09.915Z,16.58
2023-05-15T02:28:43.934Z,15.18
2023-05-15T02:31:16.114Z,16.20
2023-05-15T02:33:51.757Z,15.65
2023-05-15T02:36:25.082Z,16.50
2023-05-15T02:38:54.663Z,17.27
2023-05-15T02:41:23.043Z,16.08
2023-05-15T02:43:51.898Z,18.23
2023-05-15T02:46:20.824Z,16.88
2023-05-15T02:48:50.495Z,17.23
2023-05-15T02:51:19.091Z,19.92
2023-05-15T02:53:47.579Z,17.20
2023-05-15T02:56:15.302Z,17.52
2023-05-15T02:58:43.234Z,16.80
2023-05-15T03:01:11.037Z,18.98
2023-05-15T03:03:39.583Z,21.08
2023-05-15T03:06:09.062Z,21.23
2023-05-15T03:08:37.259Z,17.88
2023-05-15T03:11:05.456Z,18.75
2023-05-15T03:13:33.498Z,17.45
2023-05-15T03:16:01.239Z,19.48
2023-05-15T03:18:29.557Z,18.25
2023-05-15T03:20:57.811Z,18.25
2023-05-15T03:23:27.066Z,17.33
2023-05-15T03:25:55.064Z,19.30
2023-05-15T03:28:22.753Z,17.23
2023-05-15T03:30:50.598Z,16.63
2023-05-15T03:33:18.442Z,16.23
2023-05-15T03:35:46.153Z,18.10
2023-05-15T03:38:15.915Z,17.65
2023-05-15T03:40:45.405Z,17.23
2023-05-15T03:43:13.495Z,19.35
2023-05-15T03:45:42.024Z,17.35
2023-05-15T03:48:09.777Z,16.35
2023-05-15T03:50:37.617Z,18.02
2023-05-15T03:53:05.351Z,22.35
2023-05-15T03:55:33.078Z,19.00
2023-05-15T03:58:04.518Z,18.50
2023-05-15T04:00:32.206Z,18.42
2023-05-15T04:03:00.098Z,20.45
2023-05-15T04:05:28.765Z,18.55
2023-05-15T04:07:56.674Z,15.70
2023-05-15T04:10:24.740Z,16.95
2023-05-15T04:12:53.736Z,19.20
2023-05-15T04:15:25.195Z,17.27
2023-05-15T04:17:54.339Z,22.25
2023-05-15T04:20:23.082Z,16.00
2023-05-15T04:22:51.377Z,17.00
2023-05-15T04:25:20.075Z,16.77
2023-05-15T04:27:49.212Z,16.58
2023-05-15T04:30:17.554Z,17.92
2023-05-15T04:32:47.120Z,20.00
2023-05-15T04:35:15.602Z,16.80
2023-05-15T04:37:45.511Z,15.60
2023-05-15T04:40:15.115Z,14.73
2023-05-15T04:42:42.941Z,15.88
2023-05-15T04:45:11.272Z,16.00
2023-05-15T04:47:39.487Z,15.32
2023-05-15T04:50:10.051Z,15.55
2023-05-15T04:52:38.175Z,14.80
2023-05-15T04:55:07.353Z,13.40
2023-05-15T04:57:34.993Z,13.98
2023-05-15T05:00:05.263Z,14.15
2023-05-15T05:02:33.360Z,14.40
2023-05-15T05:05:01.294Z,14.40
2023-05-15T05:07:30.911Z,12.73
2023-05-15T05:09:58.627Z,12.48
2023-05-15T05:12:28.028Z,12.20
2023-05-15T05:14:56.712Z,10.57
2023-05-15T05:17:24.425Z,10.15
2023-05-15T05:19:52.185Z,10.32
2023-05-15T05:22:19.967Z,9.48
2023-05-15T05:24:49.061Z,10.15
2023-05-15T05:27:17.177Z,10.30
2023-05-15T05:29:44.808Z,9.85
2023-05-15T05:32:12.623Z,9.32
2023-05-15T05:34:40.276Z,8.25
2023-05-15T05:37:08.392Z,9.52
2023-05-15T05:39:36.216Z,8.82
2023-05-15T05:42:05.955Z,8.40
2023-05-15T05:44:34.490Z,10.40
2023-05-15T05:47:02.400Z,8.55
2023-05-15T05:49:30.183Z,8.95
2023-05-15T05:51:57.930Z,8.85
2023-05-15T05:54:25.596Z,8.38
2023-05-15T05:56:53.670Z,8.93
2023-05-15T05:59:22.758Z,8.13
2023-05-15T06:01:51.172Z,8.45
2023-05-15T06:04:21.107Z,8.00
2023-05-15T06:06:50.033Z,9.32
2023-05-15T06:09:17.950Z,9.30
2023-05-15T06:11:46.453Z,8.35
2023-05-15T06:14:14.108Z,8.40
2023-05-15T06:16:43.777Z,8.40
2023-05-15T06:19:11.648Z,10.38
2023-05-15T06:21:40.218Z,10.50
2023-05-15T06:24:08.454Z,7.18
2023-05-15T06:26:36.813Z,8.25
2023-05-15T06:29:04.426Z,7.55
2023-05-15T06:31:32.260Z,8.32
2023-05-15T06:34:01.753Z,8.25
2023-05-15T06:36:30.027Z,7.93
2023-05-15T06:38:57.701Z,7.95
2023-05-15T06:41:26.205Z,8.57
2023-05-15T06:43:55.062Z,8.18
2023-05-15T06:46:23.125Z,6.75
2023-05-15T06:48:51.212Z,8.50
2023-05-15T06:51:20.797Z,7.88
2023-05-15T06:53:48.737Z,6.97
2023-05-15T06:56:16.425Z,8.93
2023-05-15T06:58:45.553Z,5.45
2023-05-15T07:01:13.854Z,6.68
2023-05-15T07:03:43.155Z,6.38
2023-05-15T07:06:11.067Z,6.80
2023-05-15T07:08:40.165Z,6.63
2023-05-15T07:11:07.853Z,5.43
2023-05-15T07:13:36.147Z,5.85
2023-05-15T07:16:04.298Z,4.65
2023-05-15T07:18:32.647Z,4.90
2023-05-15T07:21:00.596Z,4.50
2023-05-15T07:23:28.402Z,4.45
2023-05-15T07:25:58.150Z,4.47
2023-05-15T07:28:25.785Z,4.68
2023-05-15T07:30:53.470Z,5.72
2023-05-15T07:33:21.269Z,4.28
2023-05-15T07:35:49.326Z,4.68
2023-05-15T07:38:17.598Z,4.18
2023-05-15T07:40:45.618Z,5.47
2023-05-15T07:43:14.850Z,5.05
2023-05-15T07:45:42.883Z,5.28
2023-05-15T07:48:17.846Z,4.28
2023-05-15T07:50:47.312Z,4.30
2023-05-15T07:53:16.700Z,4.72
2023-05-15T07:55:44.664Z,4.32
2023-05-15T07:58:14.527Z,4.55
2023-05-15T08:00:42.805Z,4.30
2023-05-15T08:03:11.829Z,4.15
2023-05-15T08:05:40.032Z,4.10
2023-05-15T08:08:08.131Z,3.70
2023-05-15T08:10:35.852Z,4.15
2023-05-15T08:13:03.727Z,5.05
2023-05-15T08:15:33.042Z,3.90
2023-05-15T08:18:01.603Z,3.42
2023-05-15T08:20:29.438Z,3.83
2023-05-15T08:22:57.173Z,3.75
2023-05-15T08:25:25.122Z,4.10
2023-05-15T08:27:53.145Z,4.13
2023-05-15T08:30:21.000Z,5.20
2023-05-15T08:32:50.380Z,4.20
2023-05-15T08:35:18.622Z,4.50
2023-05-15T08:37:46.451Z,4.15
2023-05-15T08:40:14.906Z,4.88
2023-05-15T08:42:45.548Z,4.65
2023-05-15T08:45:14.568Z,4.22
2023-05-15T08:47:43.594Z,4.00
2023-05-15T08:50:15.133Z,4.10
2023-05-15T08:52:43.910Z,5.25
2023-05-15T08:55:11.808Z,6.03
2023-05-15T08:57:41.201Z,7.07
2023-05-15T09:00:11.889Z,4.28
2023-05-15T09:02:40.430Z,3.95
2023-05-15T09:05:09.548Z,3.75
2023-05-15T09:07:40.021Z,4.25
2023-05-15T09:10:08.780Z,4.10
2023-05-15T09:12:38.673Z,4.00
2023-05-15T09:15:10.860Z,4.32
2023-05-15T09:17:39.588Z,4.03
2023-05-15T09:20:08.758Z,8.00
2023-05-15T09:22:37.836Z,4.53
2023-05-15T09:25:06.638Z,4.45
2023-05-15T09:27:42.032Z,4.53
2023-05-15T09:30:10.941Z,4.80
2023-05-15T09:32:39.192Z,4.22
2023-05-15T09:35:32.530Z,3.83
2023-05-15T09:38:02.889Z,4.00
2023-05-15T09:40:33.194Z,8.25
2023-05-15T09:43:01.162Z,4.20
2023-05-15T09:45:31.346Z,4.50
2023-05-15T09:48:02.148Z,4.75
2023-05-15T09:50:34.601Z,6.25
2023-05-15T09:53:04.163Z,4.07
2023-05-15T09:55:33.027Z,4.50
2023-05-15T09:58:09.300Z,4.38
2023-05-15T10:00:47.621Z,6.85
2023-05-15T10:03:18.957Z,3.92
2023-05-15T10:05:47.413Z,4.07
2023-05-15T10:08:17.580Z,6.57
2023-05-15T10:10:46.814Z,4.35
2023-05-15T10:13:14.599Z,4.15
2023-05-15T10:15:43.007Z,3.75
2023-05-15T10:18:11.899Z,4.55
2023-05-15T10:20:39.764Z,4.30
2023-05-15T10:23:11.406Z,4.13
2023-05-15T10:25:43.595Z,4.00
2023-05-15T10:28:12.939Z,4.93
2023-05-15T10:30:40.862Z,3.95
2023-05-15T10:33:10.313Z,4.18
2023-05-15T10:35:39.838Z,3.70
2023-05-15T10:38:08.242Z,3.95
2023-05-15T10:40:38.811Z,3.63
2023-05-15T10:43:09.306Z,3.80
2023-05-15T10:45:37.204Z,3.80
2023-05-15T10:48:07.548Z,3.92
2023-05-15T10:50:37.565Z,3.88
2023-05-15T10:53:05.648Z,3.97
2023-05-15T10:55:33.778Z,3.72
2023-05-15T10:58:01.587Z,4.32
2023-05-15T11:00:32.139Z,3.78
2023-05-15T11:03:01.072Z,4.10
2023-05-15T11:05:31.010Z,4.28
2023-05-15T11:08:26.204Z,4.80
2023-05-15T11:10:54.148Z,4.45
2023-05-15T11:13:22.475Z,4.35
2023-05-15T11:15:52.011Z,4.72
2023-05-15T11:18:21.394Z,4.40
2023-05-15T11:21:09.943Z,4.35
2023-05-15T11:23:42.020Z,3.58
2023-05-15T11:26:09.963Z,4.07
2023-05-15T11:28:47.266Z,4.10
2023-05-15T11:31:16.820Z,4.00
2023-05-15T11:33:44.523Z,4.20
2023-05-15T11:36:15.591Z,4.05
2023-05-15T11:38:44.459Z,4.07
2023-05-15T11:41:20.084Z,4.32
2023-05-15T11:43:49.611Z,4.55
2023-05-15T11:46:19.099Z,4.03
2023-05-15T11:48:48.531Z,4.28
2023-05-15T11:51:19.228Z,4.03
2023-05-15T11:53:47.421Z,3.78
2023-05-15T11:56:19.266Z,4.82
2023-05-15T11:58:49.912Z,4.35
2023-05-15T12:01:19.259Z,4.43
2023-05-15T12:03:48.910Z,4.70
2023-05-15T12:06:17.240Z,7.45
2023-05-15T12:08:45.832Z,4.85
2023-05-15T12:11:13.588Z,4.80
2023-05-15T12:13:41.348Z,4.40
2023-05-15T12:16:09.147Z,4.50
2023-05-15T12:18:38.462Z,4.45
2023-05-15T12:21:06.260Z,4.80
2023-05-15T12:23:34.308Z,5.63
2023-05-15T12:26:03.355Z,4.35
2023-05-15T12:28:34.902Z,4.32
2023-05-15T12:31:03.987Z,4.30
2023-05-15T12:33:31.892Z,4.20
2023-05-15T12:36:01.813Z,4.43
2023-05-15T12:38:30.555Z,4.40
2023-05-15T12:40:59.345Z,4.40
2023-05-15T12:43:27.423Z,6.25
2023-05-15T12:45:55.669Z,3.97
2023-05-15T12:48:23.676Z,4.53
2023-05-15T12:50:51.719Z,4.32
2023-05-15T12:53:22.517Z,4.25
2023-05-15T12:55:52.091Z,4.57
2023-05-15T12:58:20.032Z,4.20
2023-05-15T13:00:48.578Z,3.92
2023-05-15T13:03:16.706Z,3.83
2023-05-15T13:05:45.954Z,5.10
2023-05-15T13:08:16.560Z,8.75
2023-05-15T13:10:46.336Z,10.70
2023-05-15T13:13:14.560Z,11.65
2023-05-15T13:15:44.707Z,11.25
2023-05-15T13:18:13.625Z,10.75
2023-05-15T13:20:44.417Z,12.38
2023-05-15T13:23:16.002Z,16.63
2023-05-15T13:25:45.114Z,12.85
2023-05-15T13:28:14.098Z,13.00
2023-05-15T13:30:42.337Z,12.60
2023-05-15T13:33:11.732Z,10.95
2023-05-15T13:35:41.053Z,11.73
2023-05-15T13:38:11.319Z,11.05
2023-05-15T13:40:39.881Z,10.93
2023-05-15T13:43:09.674Z,10.73
2023-05-15T13:45:37.552Z,10.50
2023-05-15T13:48:06.703Z,9.30
2023-05-15T13:50:35.278Z,8.50
2023-05-15T13:53:03.158Z,8.48
2023-05-15T13:55:31.587Z,8.57
2023-05-15T13:57:59.892Z,7.68
2023-05-15T14:00:29.333Z,8.18
2023-05-15T14:02:57.815Z,7.97
2023-05-15T14:05:25.579Z,9.00
2023-05-15T14:07:53.463Z,9.05
2023-05-15T14:10:21.652Z,10.65
2023-05-15T14:12:51.558Z,10.02
2023-05-15T14:15:19.438Z,9.23
2023-05-15T14:17:49.413Z,9.60
2023-05-15T14:20:17.137Z,11.95
2023-05-15T14:22:45.084Z,9.63
2023-05-15T14:25:12.938Z,7.20
2023-05-15T14:27:41.094Z,7.72
2023-05-15T14:30:10.191Z,7.15
2023-05-15T14:32:37.929Z,6.90
2023-05-15T14:35:07.752Z,5.78
2023-05-15T14:37:37.278Z,6.35
2023-05-15T14:40:07.404Z,7.53
2023-05-15T14:42:35.127Z,5.28
2023-05-15T14:45:02.978Z,5.47
2023-05-15T14:47:34.691Z,5.32
2023-05-15T14:50:02.821Z,4.53
2023-05-15T14:52:32.403Z,4.78
2023-05-15T14:55:09.329Z,4.82
2023-05-15T14:57:38.171Z,4.60
2023-05-15T15:00:08.283Z,4.68
2023-05-15T15:02:36.325Z,4.78
2023-05-15T15:05:04.724Z,4.30
2023-05-15T15:08:01.326Z,4.30
2023-05-15T15:10:29.356Z,4.25
2023-05-15T15:12:58.062Z,3.83
2023-05-15T15:15:26.561Z,3.78
2023-05-15T15:17:55.190Z,4.40
2023-05-15T15:20:25.601Z,3.63
2023-05-15T15:22:55.072Z,4.22
2023-05-15T15:25:23.216Z,4.00
2023-05-15T15:27:51.105Z,4.32
2023-05-15T15:30:18.977Z,3.78
2023-05-15T15:32:46.929Z,3.80
2023-05-15T15:35:15.344Z,3.80
2023-05-15T15:37:43.154Z,3.53
2023-05-15T15:40:12.846Z,4.00
2023-05-15T15:42:40.543Z,3.78
2023-05-15T15:45:09.101Z,3.10
2023-05-15T15:47:36.866Z,2.90
2023-05-15T15:50:05.624Z,3.00
2023-05-15T15:52:33.407Z,2.97
2023-05-15T15:55:02.426Z,3.60
2023-05-15T15:57:31.650Z,5.05
2023-05-15T15:59:59.928Z,7.10
2023-05-15T16:02:28.327Z,8.27
2023-05-15T16:04:56.268Z,8.30
2023-05-15T16:07:24.102Z,8.82
2023-05-15T16:10:00.454Z,8.38
2023-05-15T16:12:42.312Z,9.13
2023-05-15T16:15:21.433Z,9.43
2023-05-15T16:17:52.318Z,10.52
2023-05-15T16:20:20.829Z,9.15
2023-05-15T16:22:48.591Z,9.68
2023-05-15T16:25:16.395Z,10.82
2023-05-15T16:27:46.203Z,9.98
2023-05-15T16:30:15.076Z,9.85
2023-05-15T16:32:42.851Z,9.65
2023-05-15T16:35:10.904Z,9.68
2023-05-15T16:37:38.834Z,9.00
2023-05-15T16:40:08.403Z,9.23
2023-05-15T16:42:37.166Z,9.45
2023-05-15T16:45:08.390Z,8.18
2023-05-15T16:47:39.379Z,7.82
2023-05-15T16:50:08.078Z,7.88
2023-05-15T16:52:35.767Z,6.97
2023-05-15T16:55:04.389Z,7.63
2023-05-15T16:57:32.118Z,7.97
2023-05-15T17:00:00.430Z,7.00
2023-05-15T17:02:29.655Z,6.70
2023-05-15T17:04:57.894Z,7.40
2023-05-15T17:07:26.107Z,7.05
2023-05-15T17:09:54.769Z,6.63
2023-05-15T17:12:23.155Z,7.38
2023-05-15T17:14:50.796Z,7.10
2023-05-15T17:17:18.528Z,7.80
2023-05-15T17:19:47.569Z,6.97
2023-05-15T17:22:15.786Z,7.00
2023-05-15T17:27:18.396Z,7.70
2023-05-15T17:29:46.234Z,6.95
2023-05-15T17:32:14.706Z,6.80
2023-05-15T17:34:42.480Z,7.03
2023-05-15T17:37:12.652Z,6.22
2023-05-15T17:39:41.202Z,6.85
2023-05-15T17:42:09.084Z,7.97
2023-05-15T17:44:36.767Z,7.22
2023-05-15T17:47:04.650Z,6.82
2023-05-15T17:49:34.479Z,7.15
2023-05-15T17:52:02.311Z,6.63
2023-05-15T17:54:31.348Z,6.40
2023-05-15T17:56:59.304Z,5.68
2023-05-15T17:59:27.842Z,5.45
2023-05-15T18:01:55.731Z,6.30
2023-05-15T18:04:24.259Z,5.60
2023-05-15T18:06:52.294Z,12.77
2023-05-15T18:09:22.465Z,5.15
2023-05-15T18:11:53.071Z,5.53
2023-05-15T18:14:21.425Z,5.15
2023-05-15T18:16:49.346Z,6.00
2023-05-15T18:19:18.064Z,4.75
2023-05-15T18:21:46.120Z,5.30
2023-05-15T18:24:15.054Z,5.28
2023-05-15T18:26:43.002Z,5.03
2023-05-15T18:29:12.621Z,5.35
2023-05-15T18:31:40.355Z,5.75
2023-05-15T18:34:08.089Z,5.05
2023-05-15T18:36:35.953Z,5.57
2023-05-15T18:39:03.916Z,9.00
2023-05-15T18:41:32.270Z,5.57
2023-05-15T18:44:00.528Z,5.40
2023-05-15T18:46:31.698Z,5.22
2023-05-15T18:48:59.926Z,6.22
2023-05-15T18:51:27.883Z,6.20
2023-05-15T18:53:56.106Z,5.53
2023-05-15T18:56:25.126Z,5.60
2023-05-15T18:58:52.964Z,6.10
2023-05-15T19:01:21.002Z,6.80
2023-05-15T19:03:50.290Z,5.80
2023-05-15T19:06:20.244Z,6.03
2023-05-15T19:08:48.404Z,5.55
2023-05-15T19:11:17.654Z,8.57
2023-05-15T19:13:46.537Z,5.72
2023-05-15T19:16:14.265Z,5.45
2023-05-15T19:18:42.126Z,5.50
2023-05-15T19:21:11.216Z,5.20
2023-05-15T19:23:39.174Z,5.88
2023-05-15T19:26:06.812Z,6.07
2023-05-15T19:28:35.623Z,5.50
2023-05-15T19:31:04.265Z,5.75
2023-05-15T19:33:32.096Z,6.55
2023-05-15T19:35:59.801Z,5.72
2023-05-15T19:38:29.277Z,5.70
2023-05-15T19:40:56.982Z,6.13
2023-05-15T19:43:24.764Z,7.28
2023-05-15T19:45:53.381Z,6.40
2023-05-15T19:48:21.090Z,6.55
2023-05-15T19:50:48.968Z,6.22
2023-05-15T19:53:16.993Z,6.60
2023-05-15T19:55:46.480Z,6.57
2023-05-15T19:58:16.866Z,6.13
2023-05-15T20:00:46.068Z,6.90
2023-05-15T20:03:14.783Z,7.53
2023-05-15T20:05:43.174Z,6.45
2023-05-15T20:08:10.936Z,7.28
2023-05-15T20:10:38.929Z,7.28
2023-05-15T20:13:08.030Z,7.07
2023-05-15T20:15:39.935Z,7.80
2023-05-15T20:18:09.208Z,8.20
2023-05-15T20:20:37.234Z,7.57
2023-05-15T20:23:05.882Z,9.63
2023-05-15T20:25:34.481Z,9.15
2023-05-15T20:28:03.280Z,8.15
2023-05-15T20:30:32.893Z,8.00
2023-05-15T20:33:01.125Z,9.70
2023-05-15T20:35:29.724Z,10.27
2023-05-15T20:37:58.331Z,9.60
2023-05-15T20:40:26.681Z,10.02
2023-05-15T20:42:54.633Z,8.98
2023-05-15T20:45:22.676Z,10.32
2023-05-15T20:47:52.099Z,9.30
2023-05-15T20:50:20.008Z,13.82
2023-05-15T20:52:48.050Z,10.63
2023-05-15T20:55:19.409Z,10.40
2023-05-15T20:57:48.476Z,13.15
2023-05-15T21:00:18.653Z,11.07
2023-05-15T21:02:47.080Z,12.95
2023-05-15T21:05:16.364Z,8.73
2023-05-15T21:07:44.484Z,8.07
2023-05-15T21:10:12.504Z,8.82
2023-05-15T21:12:40.892Z,8.35
2023-05-15T21:15:09.812Z,10.68
2023-05-15T21:17:38.216Z,8.52
2023-05-15T21:20:07.146Z,10.95
2023-05-15T21:22:36.923Z,8.45
2023-05-15T21:25:05.218Z,8.00
2023-05-15T21:27:34.014Z,7.78
2023-05-15T21:30:01.685Z,7.32
2023-05-15T21:32:29.471Z,6.95
2023-05-15T21:34:57.166Z,9.57
2023-05-15T21:37:24.980Z,6.72
2023-05-15T21:39:54.041Z,7.20
2023-05-15T21:42:21.932Z,6.55
2023-05-15T21:44:50.151Z,6.05
2023-05-15T21:47:17.965Z,5.63
2023-05-15T21:49:45.777Z,5.07
2023-05-15T21:52:14.121Z,4.88
2023-05-15T21:54:44.522Z,5.85
2023-05-15T21:57:13.805Z,6.03
2023-05-15T21:59:42.514Z,7.07
2023-05-15T22:02:10.281Z,6.50
2023-05-15T22:04:37.992Z,5.90
2023-05-15T22:07:06.115Z,4.93
2023-05-15T22:09:34.258Z,4.90
2023-05-15T22:12:01.928Z,4.70
2023-05-15T22:14:31.389Z,5.18
2023-05-15T22:17:00.307Z,4.32
2023-05-15T22:19:33.188Z,6.03
2023-05-15T22:22:02.211Z,7.75
2023-05-15T22:24:30.126Z,4.45
2023-05-15T22:26:57.858Z,4.82
2023-05-15T22:29:25.559Z,4.78
2023-05-15T22:31:54.665Z,6.25
2023-05-15T22:34:22.703Z,8.50
2023-05-15T22:36:50.503Z,6.22
2023-05-15T22:39:18.346Z,6.18
2023-05-15T22:41:46.040Z,4.03
2023-05-15T22:44:13.729Z,4.85
2023-05-15T22:46:41.369Z,5.00
2023-05-15T22:49:18.937Z,4.78
2023-05-15T22:51:46.872Z,4.65
2023-05-15T22:54:14.528Z,4.22
2023-05-15T22:56:42.212Z,4.18
2023-05-15T22:59:10.283Z,6.25
2023-05-15T23:01:38.299Z,5.75
2023-05-15T23:04:06.321Z,4.05
2023-05-15T23:06:35.634Z,3.92
2023-05-15T23:09:04.512Z,5.00
2023-05-15T23:11:33.166Z,4.38
2023-05-15T23:14:00.983Z,7.55
2023-05-15T23:16:28.877Z,4.75
2023-05-15T23:18:57.662Z,3.85
2023-05-15T23:21:25.624Z,4.55
2023-05-15T23:23:54.980Z,6.32
2023-05-15T23:26:22.831Z,6.80
2023-05-15T23:28:50.572Z,3.90
2023-05-15T23:31:18.270Z,4.57
2023-05-15T23:33:46.131Z,3.78
2023-05-15T23:36:13.818Z,3.58
2023-05-15T23:38:41.433Z,3.08
2023-05-15T23:41:10.635Z,4.50
2023-05-15T23:43:38.336Z,3.17
2023-05-15T23:46:06.444Z,3.53
2023-05-15T23:48:34.888Z,2.75
2023-05-15T23:51:03.747Z,3.67
2023-05-15T23:53:31.628Z,2.95
2023-05-15T23:55:59.314Z,3.33
2023-05-15T23:58:28.365Z,2.88
